createdAt,value
2017-12-03T00:00:53.939Z,0.71
2017-12-03T00:05:55.151Z,0.59
2017-12-03T00:08:22.658Z,0.67
2017-12-03T00:10:50.192Z,0.62
2017-12-03T00:13:17.724Z,0.57
2017-12-03T00:15:45.222Z,0.62
2017-12-03T00:18:12.744Z,0.61
2017-12-03T00:20:40.331Z,0.60
2017-12-03T00:23:07.815Z,0.60
2017-12-03T00:25:35.347Z,0.62
2017-12-03T00:28:02.910Z,0.60
2017-12-03T00:30:30.403Z,0.55
2017-12-03T00:32:57.919Z,0.51
2017-12-03T00:35:25.411Z,0.51
2017-12-03T00:37:52.906Z,0.54
2017-12-03T00:40:20.427Z,0.50
2017-12-03T00:42:47.975Z,0.45
2017-12-03T00:45:15.531Z,0.47
2017-12-03T00:47:43.087Z,0.52
2017-12-03T00:50:10.591Z,0.56
2017-12-03T00:52:38.132Z,0.56
2017-12-03T00:55:05.659Z,0.54
2017-12-03T00:57:33.156Z,0.52
2017-12-03T01:00:00.682Z,0.56
2017-12-03T01:02:28.184Z,0.61
2017-12-03T01:04:55.803Z,0.60
2017-12-03T01:07:23.360Z,0.51
2017-12-03T01:09:50.856Z,0.41
2017-12-03T01:12:18.348Z,0.32
2017-12-03T01:14:45.866Z,0.24
2017-12-03T01:17:13.381Z,0.20
2017-12-03T01:19:40.877Z,0.09
2017-12-03T01:22:08.517Z,0.04
2017-12-03T01:24:36.017Z,-0.06
2017-12-03T01:27:03.518Z,-0.11
2017-12-03T01:29:31.048Z,-0.12
2017-12-03T01:31:58.549Z,-0.10
2017-12-03T01:34:26.052Z,-0.13
2017-12-03T01:36:53.573Z,-0.15
2017-12-03T01:39:21.068Z,-0.16
2017-12-03T01:41:48.587Z,-0.11
2017-12-03T01:44:16.077Z,-0.14
2017-12-03T01:46:43.625Z,-0.19
2017-12-03T01:49:11.127Z,-0.23
2017-12-03T01:51:38.623Z,-0.25
2017-12-03T01:54:06.160Z,-0.22
2017-12-03T01:56:33.662Z,-0.23
2017-12-03T01:59:01.171Z,-0.15
2017-12-03T02:01:28.719Z,-0.17
2017-12-03T02:03:56.217Z,-0.16
2017-12-03T02:06:23.706Z,-0.17
2017-12-03T02:08:51.247Z,-0.13
2017-12-03T02:11:18.744Z,-0.13
2017-12-03T02:13:46.252Z,-0.16
2017-12-03T02:16:13.788Z,-0.17
2017-12-03T02:18:41.283Z,-0.19
2017-12-03T02:21:08.772Z,-0.23
2017-12-03T02:23:36.284Z,-0.28
2017-12-03T02:26:03.780Z,-0.31
2017-12-03T02:28:31.314Z,-0.32
2017-12-03T02:30:58.813Z,-0.21
2017-12-03T02:33:26.316Z,-0.22
2017-12-03T02:35:53.847Z,-0.26
2017-12-03T02:38:21.403Z,-0.30
2017-12-03T02:40:48.967Z,-0.31
2017-12-03T02:43:16.489Z,-0.32
2017-12-03T02:45:44.076Z,-0.35
2017-12-03T02:48:11.744Z,-0.39
2017-12-03T02:50:39.262Z,-0.40
2017-12-03T02:53:06.766Z,-0.43
2017-12-03T02:55:34.628Z,-0.46
2017-12-03T02:58:02.257Z,-0.46
2017-12-03T03:00:29.752Z,-0.48
2017-12-03T03:02:57.279Z,-0.45
2017-12-03T03:05:24.776Z,-0.39
2017-12-03T03:07:52.284Z,-0.31
2017-12-03T03:10:19.835Z,-0.25
2017-12-03T03:12:47.331Z,-0.21
2017-12-03T03:15:14.820Z,-0.24
2017-12-03T03:17:42.467Z,-0.19
2017-12-03T03:20:09.961Z,-0.12
2017-12-03T03:22:37.450Z,-0.14
2017-12-03T03:25:04.975Z,-0.18
2017-12-03T03:27:32.476Z,-0.24
2017-12-03T03:29:59.964Z,-0.27
2017-12-03T03:32:27.476Z,-0.26
2017-12-03T03:34:55.020Z,-0.22
2017-12-03T03:37:22.520Z,-0.34
2017-12-03T03:39:50.096Z,-0.48
2017-12-03T03:42:17.630Z,-0.57
2017-12-03T03:44:45.126Z,-0.63
2017-12-03T03:47:12.770Z,-0.61
2017-12-03T03:49:40.577Z,-0.60
2017-12-03T03:52:08.079Z,-0.62
2017-12-03T03:54:35.582Z,-0.61
2017-12-03T03:57:03.104Z,-0.59
2017-12-03T03:59:30.597Z,-0.47
2017-12-03T04:01:58.186Z,-0.56
2017-12-03T04:04:25.687Z,-0.62
2017-12-03T04:06:53.205Z,-0.58
2017-12-03T04:09:20.739Z,-0.55
2017-12-03T04:11:48.233Z,-0.57
2017-12-03T04:14:15.724Z,-0.62
2017-12-03T04:16:43.389Z,-0.68
2017-12-03T04:19:10.892Z,-0.67
2017-12-03T04:21:38.391Z,-0.72
2017-12-03T04:24:05.917Z,-0.79
2017-12-03T04:26:33.419Z,-0.84
2017-12-03T04:29:00.924Z,-0.86
2017-12-03T04:31:28.460Z,-1.11
2017-12-03T04:33:55.966Z,-1.10
2017-12-03T04:36:23.475Z,-0.98
2017-12-03T04:38:51.202Z,-0.83
2017-12-03T04:41:18.700Z,-0.71
2017-12-03T04:43:46.192Z,-0.60
2017-12-03T04:46:13.739Z,-0.56
2017-12-03T04:48:41.234Z,-0.61
2017-12-03T04:51:08.734Z,-0.57
2017-12-03T04:53:36.257Z,-0.54
2017-12-03T04:56:03.750Z,-0.41
2017-12-03T04:58:31.247Z,-0.33
2017-12-03T05:00:58.836Z,-0.27
2017-12-03T05:03:26.342Z,-0.25
2017-12-03T05:05:53.838Z,-0.19
2017-12-03T05:08:21.367Z,-0.13
2017-12-03T05:10:48.872Z,-0.06
2017-12-03T05:13:16.363Z,-0.02
2017-12-03T05:15:43.888Z,0.00
2017-12-03T05:18:11.431Z,0.05
2017-12-03T05:20:38.932Z,0.01
2017-12-03T05:23:06.464Z,-0.02
2017-12-03T05:25:33.952Z,0.01
2017-12-03T05:28:01.436Z,0.07
2017-12-03T05:30:28.966Z,0.13
2017-12-03T05:32:56.457Z,0.16
2017-12-03T05:35:23.942Z,0.19
2017-12-03T05:37:51.475Z,0.18
2017-12-03T05:40:19.055Z,0.18
2017-12-03T05:42:46.542Z,0.17
2017-12-03T05:45:14.075Z,0.21
2017-12-03T05:47:41.563Z,0.19
2017-12-03T05:50:09.068Z,0.22
2017-12-03T05:52:36.610Z,0.26
2017-12-03T05:55:04.120Z,0.25
2017-12-03T05:57:31.618Z,0.23
2017-12-03T05:59:59.220Z,0.20
2017-12-03T06:02:26.714Z,0.17
2017-12-03T06:04:54.239Z,0.23
2017-12-03T06:07:21.736Z,0.22
2017-12-03T06:09:49.251Z,0.27
2017-12-03T06:12:16.763Z,0.30
2017-12-03T06:14:44.285Z,0.29
2017-12-03T06:17:11.771Z,0.16
2017-12-03T06:19:39.310Z,0.11
2017-12-03T06:22:06.809Z,0.15
2017-12-03T06:24:34.315Z,0.18
2017-12-03T06:27:01.855Z,0.21
2017-12-03T06:29:29.349Z,0.20
2017-12-03T06:31:56.842Z,0.18
2017-12-03T06:34:24.379Z,0.22
2017-12-03T06:36:51.880Z,0.18
2017-12-03T06:39:19.377Z,0.12
2017-12-03T06:41:46.918Z,0.08
2017-12-03T06:44:14.477Z,0.06
2017-12-03T06:46:42.040Z,0.02
2017-12-03T06:49:09.529Z,0.00
2017-12-03T06:51:37.025Z,-0.08
2017-12-03T06:54:04.576Z,-0.15
2017-12-03T06:56:32.168Z,-0.21
2017-12-03T06:58:59.666Z,-0.27
2017-12-03T07:01:27.282Z,-0.36
2017-12-03T07:03:54.785Z,-0.48
2017-12-03T07:06:22.288Z,-0.49
2017-12-03T07:08:49.825Z,-0.50
2017-12-03T07:11:17.319Z,-0.54
2017-12-03T07:13:44.832Z,-0.55
2017-12-03T07:16:12.661Z,-0.63
2017-12-03T07:18:40.168Z,-0.69
2017-12-03T07:21:07.659Z,-0.73
2017-12-03T07:23:35.186Z,-0.73
2017-12-03T07:26:02.780Z,-0.74
2017-12-03T07:28:30.276Z,-0.82
2017-12-03T07:30:57.819Z,-0.86
2017-12-03T07:33:25.320Z,-0.84
2017-12-03T07:35:52.818Z,-0.90
2017-12-03T07:38:20.336Z,-0.90
2017-12-03T07:40:47.927Z,-0.89
2017-12-03T07:43:15.424Z,-0.90
2017-12-03T07:45:43.051Z,-0.91
2017-12-03T07:48:10.546Z,-0.93
2017-12-03T07:50:38.887Z,-0.97
2017-12-03T07:53:06.414Z,-0.95
2017-12-03T07:55:33.915Z,-0.91
2017-12-03T07:58:01.477Z,-0.96
2017-12-03T08:00:29.007Z,-0.94
2017-12-03T08:02:56.593Z,-0.88
2017-12-03T08:05:24.151Z,-0.90
2017-12-03T08:07:51.644Z,-0.96
2017-12-03T08:10:19.140Z,-0.97
2017-12-03T08:12:46.659Z,-0.93
2017-12-03T08:15:14.148Z,-0.89
2017-12-03T08:17:41.651Z,-0.80
2017-12-03T08:20:09.160Z,-0.72
2017-12-03T08:22:36.648Z,-0.64
2017-12-03T08:25:04.175Z,-0.63
2017-12-03T08:27:31.664Z,-0.57
2017-12-03T08:29:59.152Z,-0.55
2017-12-03T08:32:26.692Z,-0.52
2017-12-03T08:34:54.178Z,-0.50
2017-12-03T08:37:21.666Z,-0.43
2017-12-03T08:39:49.270Z,-0.35
2017-12-03T08:42:16.800Z,-0.33
2017-12-03T08:44:44.472Z,-0.26
2017-12-03T08:47:11.969Z,-0.17
2017-12-03T08:49:39.455Z,-0.10
2017-12-03T08:52:06.995Z,-0.06
2017-12-03T08:54:34.493Z,0.03
2017-12-03T08:57:02.069Z,0.10
2017-12-03T08:59:29.631Z,0.12
2017-12-03T09:01:57.118Z,0.10
2017-12-03T09:04:24.663Z,0.10
2017-12-03T09:06:52.152Z,0.12
2017-12-03T09:09:19.641Z,0.14
2017-12-03T09:11:47.186Z,0.19
2017-12-03T09:14:14.756Z,0.35
2017-12-03T09:16:42.276Z,0.65
2017-12-03T09:21:43.666Z,1.08
2017-12-03T09:24:11.189Z,1.03
2017-12-03T09:26:38.682Z,0.93
2017-12-03T09:29:06.180Z,0.82
2017-12-03T09:31:33.718Z,0.77
2017-12-03T09:34:01.204Z,0.73
2017-12-03T09:36:28.755Z,0.66
2017-12-03T09:38:56.279Z,0.68
2017-12-03T09:41:23.778Z,0.74
2017-12-03T09:43:51.347Z,0.77
2017-12-03T09:46:18.902Z,0.75
2017-12-03T09:48:46.392Z,0.81
2017-12-03T09:51:13.876Z,0.87
2017-12-03T09:53:41.458Z,0.89
2017-12-03T09:56:08.971Z,0.91
2017-12-03T09:58:36.481Z,0.91
2017-12-03T10:01:04.140Z,0.93
2017-12-03T10:03:31.715Z,0.97
2017-12-03T10:05:59.211Z,1.05
2017-12-03T10:08:26.733Z,1.12
2017-12-03T10:10:54.227Z,1.17
2017-12-03T10:13:21.719Z,1.13
2017-12-03T10:15:49.333Z,1.11
2017-12-03T10:18:16.844Z,1.26
2017-12-03T10:20:44.345Z,1.36
2017-12-03T10:23:11.832Z,1.44
2017-12-03T10:25:39.363Z,1.52
2017-12-03T10:28:06.853Z,1.60
2017-12-03T10:30:34.349Z,1.58
2017-12-03T10:33:01.884Z,1.52
2017-12-03T10:35:29.372Z,1.47
2017-12-03T10:38:06.947Z,1.48
2017-12-03T10:40:34.433Z,1.58
2017-12-03T10:43:01.982Z,1.70
2017-12-03T10:45:29.477Z,1.75
2017-12-03T10:47:56.969Z,1.78
2017-12-03T10:50:24.505Z,1.84
2017-12-03T10:52:51.996Z,1.87
2017-12-03T10:55:19.485Z,1.89
2017-12-03T10:57:47.019Z,1.94
2017-12-03T11:00:14.511Z,1.99
2017-12-03T11:02:42.128Z,2.02
2017-12-03T11:05:09.671Z,2.07
2017-12-03T11:07:37.266Z,2.26
2017-12-03T11:10:04.752Z,2.43
2017-12-03T11:12:32.271Z,2.50
2017-12-03T11:14:59.760Z,2.43
2017-12-03T11:17:27.245Z,2.43
2017-12-03T11:19:54.787Z,2.39
2017-12-03T11:22:22.276Z,2.40
2017-12-03T11:24:49.759Z,2.47
2017-12-03T11:27:17.318Z,2.43
2017-12-03T11:29:44.814Z,2.39
2017-12-03T11:32:12.404Z,2.42
2017-12-03T11:34:39.938Z,2.47
2017-12-03T11:37:07.427Z,2.52
2017-12-03T11:39:34.924Z,2.59
2017-12-03T11:42:02.479Z,2.64
2017-12-03T11:44:29.991Z,2.62
2017-12-03T11:46:57.483Z,2.50
2017-12-03T11:49:25.019Z,2.37
2017-12-03T11:51:52.500Z,2.37
2017-12-03T11:54:19.999Z,2.36
2017-12-03T11:56:47.508Z,2.46
2017-12-03T11:59:15.037Z,2.50
2017-12-03T12:01:42.750Z,2.54
2017-12-03T12:04:10.241Z,2.56
2017-12-03T12:06:37.731Z,2.59
2017-12-03T12:09:05.256Z,2.55
2017-12-03T12:11:32.752Z,2.40
2017-12-03T12:14:00.235Z,2.37
2017-12-03T12:16:27.755Z,2.49
2017-12-03T12:18:55.343Z,2.55
2017-12-03T12:21:22.903Z,2.42
2017-12-03T12:23:50.390Z,2.40
2017-12-03T12:26:17.879Z,2.46
2017-12-03T12:28:45.484Z,2.43
2017-12-03T12:31:13.040Z,2.42
2017-12-03T12:33:40.544Z,2.29
2017-12-03T12:36:08.075Z,2.30
2017-12-03T12:38:35.563Z,2.35
2017-12-03T12:41:03.074Z,2.44
2017-12-03T12:43:30.605Z,2.39
2017-12-03T12:45:58.095Z,2.44
2017-12-03T12:48:25.663Z,2.45
2017-12-03T12:50:53.178Z,2.35
2017-12-03T12:53:20.675Z,2.28
2017-12-03T12:55:48.168Z,2.23
2017-12-03T12:58:15.798Z,2.22
2017-12-03T13:00:43.307Z,2.18
2017-12-03T13:03:10.843Z,2.17
2017-12-03T13:05:38.332Z,2.20
2017-12-03T13:08:05.817Z,2.21
2017-12-03T13:10:33.358Z,2.18
2017-12-03T13:13:00.940Z,2.01
2017-12-03T13:15:28.428Z,1.92
2017-12-03T13:17:55.955Z,1.92
2017-12-03T13:20:23.449Z,1.87
2017-12-03T13:22:50.940Z,1.93
2017-12-03T13:25:18.508Z,1.87
2017-12-03T13:27:45.991Z,1.92
2017-12-03T13:30:13.495Z,1.79
2017-12-03T13:32:41.100Z,1.74
2017-12-03T13:35:08.656Z,1.69
2017-12-03T13:37:36.159Z,1.66
2017-12-03T13:40:03.688Z,1.65
2017-12-03T13:42:31.175Z,1.61
2017-12-03T13:44:58.668Z,1.68
2017-12-03T13:47:26.195Z,1.61
2017-12-03T13:49:53.807Z,1.52
2017-12-03T13:52:21.302Z,1.61
2017-12-03T13:54:48.854Z,1.65
2017-12-03T13:57:16.340Z,1.58
2017-12-03T13:59:43.828Z,1.58
2017-12-03T14:02:11.363Z,1.56
2017-12-03T14:04:38.853Z,1.56
2017-12-03T14:07:06.350Z,1.51
2017-12-03T14:09:33.900Z,1.57
2017-12-03T14:12:01.466Z,1.65
2017-12-03T14:14:28.944Z,1.66
2017-12-03T14:16:56.573Z,1.60
2017-12-03T14:19:24.063Z,1.48
2017-12-03T14:21:51.577Z,1.48
2017-12-03T14:24:19.104Z,1.47
2017-12-03T14:26:46.626Z,1.53
2017-12-03T14:29:14.114Z,1.54
2017-12-03T14:31:41.647Z,1.54
2017-12-03T14:34:09.163Z,1.38
2017-12-03T14:36:36.645Z,1.43
2017-12-03T14:39:04.165Z,1.40
2017-12-03T14:41:31.761Z,1.42
2017-12-03T14:43:59.298Z,1.36
2017-12-03T14:46:26.788Z,1.29
2017-12-03T14:48:54.303Z,1.24
2017-12-03T14:51:21.979Z,1.22
2017-12-03T14:53:49.471Z,1.19
2017-12-03T14:56:16.983Z,1.19
2017-12-03T14:58:44.487Z,1.21
2017-12-03T15:01:12.135Z,1.22
2017-12-03T15:03:39.630Z,1.17
2017-12-03T15:06:07.128Z,1.17
2017-12-03T15:08:34.663Z,1.19
2017-12-03T15:11:02.178Z,1.18
2017-12-03T15:13:29.668Z,1.15
2017-12-03T15:15:57.201Z,1.17
2017-12-03T15:18:24.686Z,1.18
2017-12-03T15:20:52.183Z,1.22
2017-12-03T15:23:19.734Z,1.21
2017-12-03T15:25:47.242Z,1.07
2017-12-03T15:28:14.731Z,1.04
2017-12-03T15:30:42.251Z,1.08
2017-12-03T15:33:09.771Z,1.07
2017-12-03T15:35:37.267Z,1.09
2017-12-03T15:38:04.884Z,1.06
2017-12-03T15:40:32.372Z,1.05
2017-12-03T15:42:59.906Z,1.01
2017-12-03T15:45:27.479Z,1.04
2017-12-03T15:47:54.975Z,1.07
2017-12-03T15:50:22.460Z,1.09
2017-12-03T15:52:49.979Z,1.11
2017-12-03T15:55:17.472Z,1.08
2017-12-03T15:57:45.015Z,1.03
2017-12-03T16:00:12.529Z,0.97
2017-12-03T16:02:40.016Z,0.95
2017-12-03T16:05:07.504Z,0.99
2017-12-03T16:07:35.092Z,0.98
2017-12-03T16:10:02.597Z,0.96
2017-12-03T16:12:30.123Z,0.94
2017-12-03T16:14:57.655Z,0.95
2017-12-03T16:17:25.204Z,0.94
2017-12-03T16:19:52.687Z,0.95
2017-12-03T16:22:20.215Z,1.02
2017-12-03T16:24:47.708Z,1.00
2017-12-03T16:27:15.191Z,1.03
2017-12-03T16:29:42.719Z,1.04
2017-12-03T16:32:10.206Z,1.07
2017-12-03T16:34:37.701Z,1.05
2017-12-03T16:37:05.243Z,1.02
2017-12-03T16:39:33.502Z,1.03
2017-12-03T16:42:01.000Z,1.00
2017-12-03T16:44:28.530Z,0.96
2017-12-03T16:46:56.010Z,0.92
2017-12-03T16:49:23.495Z,0.94
2017-12-03T16:51:51.028Z,0.91
2017-12-03T16:54:18.512Z,0.92
2017-12-03T16:56:46.124Z,0.97
2017-12-03T16:59:13.689Z,1.02
2017-12-03T17:01:41.211Z,1.00
2017-12-03T17:04:08.699Z,1.04
2017-12-03T17:06:36.231Z,1.05
2017-12-03T17:09:03.781Z,1.00
2017-12-03T17:11:31.271Z,1.00
2017-12-03T17:13:58.803Z,0.99
2017-12-03T17:16:26.338Z,1.04
2017-12-03T17:18:53.854Z,1.10
2017-12-03T17:21:21.389Z,1.10
2017-12-03T17:23:48.872Z,1.07
2017-12-03T17:26:16.360Z,1.08
2017-12-03T17:28:43.916Z,1.03
2017-12-03T17:31:11.416Z,1.11
2017-12-03T17:33:38.910Z,1.02
2017-12-03T17:36:06.435Z,1.01
2017-12-03T17:38:33.983Z,1.00
2017-12-03T17:41:01.507Z,0.93
2017-12-03T17:43:29.199Z,0.95
2017-12-03T17:45:56.696Z,0.89
2017-12-03T17:48:24.183Z,0.88
2017-12-03T17:50:51.779Z,0.91
2017-12-03T17:53:19.323Z,0.92
2017-12-03T17:55:47.000Z,0.94
2017-12-03T17:58:14.559Z,0.92
2017-12-03T18:00:42.050Z,0.87
2017-12-03T18:03:09.587Z,0.88
2017-12-03T18:05:37.138Z,0.89
2017-12-03T18:08:04.671Z,0.88
2017-12-03T18:10:32.226Z,0.91
2017-12-03T18:12:59.710Z,0.88
2017-12-03T18:15:27.227Z,0.88
2017-12-03T18:17:54.814Z,0.89
2017-12-03T18:20:22.299Z,0.97
2017-12-03T18:22:49.844Z,0.94
2017-12-03T18:25:17.508Z,0.95
2017-12-03T18:27:44.992Z,0.98
2017-12-03T18:30:12.476Z,1.04
2017-12-03T18:32:40.000Z,1.04
2017-12-03T18:35:07.548Z,1.07
2017-12-03T18:37:35.062Z,1.10
2017-12-03T18:40:02.579Z,1.11
2017-12-03T18:42:30.071Z,1.09
2017-12-03T18:44:57.559Z,1.04
2017-12-03T18:47:25.083Z,1.04
2017-12-03T18:49:52.591Z,1.11
2017-12-03T18:52:20.079Z,1.13
2017-12-03T18:54:47.706Z,1.13
2017-12-03T18:57:15.227Z,1.13
2017-12-03T18:59:42.711Z,1.16
2017-12-03T19:02:10.257Z,1.15
2017-12-03T19:04:37.746Z,1.12
2017-12-03T19:07:05.240Z,1.17
2017-12-03T19:09:32.780Z,1.20
2017-12-03T19:12:00.273Z,1.27
2017-12-03T19:14:27.755Z,1.28
2017-12-03T19:16:55.315Z,1.26
2017-12-03T19:19:22.818Z,1.27
2017-12-03T19:21:50.299Z,1.26
2017-12-03T19:24:17.827Z,1.30
2017-12-03T19:26:45.314Z,1.24
2017-12-03T19:29:12.807Z,1.29
2017-12-03T19:31:40.335Z,1.26
2017-12-03T19:34:07.957Z,1.22
2017-12-03T19:36:35.586Z,1.17
2017-12-03T19:39:03.121Z,1.20
2017-12-03T19:41:30.607Z,1.24
2017-12-03T19:43:58.151Z,1.33
2017-12-03T19:46:25.678Z,1.36
2017-12-03T19:48:53.164Z,1.42
2017-12-03T19:51:20.655Z,1.47
2017-12-03T19:53:48.194Z,1.48
2017-12-03T19:56:15.751Z,1.52
2017-12-03T19:58:43.242Z,1.54
2017-12-03T20:01:10.747Z,1.57
2017-12-03T20:03:38.231Z,1.59
2017-12-03T20:06:05.801Z,1.64
2017-12-03T20:08:33.284Z,1.66
2017-12-03T20:11:00.804Z,1.72
2017-12-03T20:13:28.329Z,1.71
2017-12-03T20:15:55.818Z,1.75
2017-12-03T20:18:23.311Z,1.75
2017-12-03T20:20:50.827Z,1.82
2017-12-03T20:23:18.312Z,1.82
2017-12-03T20:25:45.802Z,1.85
2017-12-03T20:28:13.332Z,1.86
2017-12-03T20:30:40.833Z,1.90
2017-12-03T20:33:08.326Z,1.96
2017-12-03T20:35:35.847Z,2.02
2017-12-03T20:38:03.343Z,2.09
2017-12-03T20:40:30.832Z,2.10
2017-12-03T20:42:58.360Z,2.14
2017-12-03T20:45:25.847Z,2.15
2017-12-03T20:47:53.339Z,2.29
2017-12-03T20:50:20.867Z,2.32
2017-12-03T20:52:48.507Z,2.36
2017-12-03T20:55:16.033Z,2.39
2017-12-03T20:57:43.559Z,2.41
2017-12-03T21:00:11.059Z,2.43
2017-12-03T21:02:38.620Z,2.45
2017-12-03T21:05:06.202Z,2.48
2017-12-03T21:07:33.768Z,2.50
2017-12-03T21:10:01.286Z,2.52
2017-12-03T21:12:28.808Z,2.52
2017-12-03T21:14:56.357Z,2.53
2017-12-03T21:17:23.894Z,2.52
2017-12-03T21:19:51.384Z,2.53
2017-12-03T21:22:19.014Z,2.54
2017-12-03T21:24:46.516Z,2.50
2017-12-03T21:27:14.119Z,2.51
2017-12-03T21:29:41.682Z,2.56
2017-12-03T21:32:09.171Z,2.56
2017-12-03T21:34:36.698Z,2.59
2017-12-03T21:37:04.267Z,2.62
2017-12-03T21:39:31.803Z,2.64
2017-12-03T21:41:59.292Z,2.67
2017-12-03T21:44:26.828Z,2.66
2017-12-03T21:46:54.328Z,2.67
2017-12-03T21:49:21.808Z,2.71
2017-12-03T21:51:49.366Z,2.71
2017-12-03T21:54:16.851Z,2.73
2017-12-03T21:56:44.437Z,2.76
2017-12-03T21:59:11.976Z,2.77
2017-12-03T22:01:39.538Z,2.72
2017-12-03T22:04:07.035Z,2.74
2017-12-03T22:06:34.574Z,2.67
2017-12-03T22:09:02.070Z,2.66
2017-12-03T22:11:29.581Z,2.65
2017-12-03T22:13:57.115Z,2.60
2017-12-03T22:16:24.601Z,2.64
2017-12-03T22:18:52.116Z,2.64
2017-12-03T22:21:19.703Z,2.65
2017-12-03T22:23:47.191Z,2.66
2017-12-03T22:26:14.724Z,2.74
2017-12-03T22:28:42.282Z,2.74
2017-12-03T22:31:09.857Z,2.75
2017-12-03T22:33:37.400Z,2.73
2017-12-03T22:36:04.891Z,2.77
2017-12-03T22:38:32.432Z,2.79
2017-12-03T22:40:59.918Z,2.80
2017-12-03T22:43:27.404Z,2.78
2017-12-03T22:45:54.936Z,2.78
2017-12-03T22:48:22.425Z,2.80
2017-12-03T22:50:49.916Z,2.82
2017-12-03T22:53:17.448Z,2.84
2017-12-03T22:55:45.023Z,2.86
2017-12-03T22:58:12.512Z,2.86
2017-12-03T23:00:40.052Z,2.84
2017-12-03T23:03:07.540Z,2.77
2017-12-03T23:05:35.028Z,2.78
2017-12-03T23:08:02.551Z,2.79
2017-12-03T23:10:30.035Z,2.82
2017-12-03T23:12:57.540Z,2.86
2017-12-03T23:15:25.078Z,2.89
2017-12-03T23:17:52.568Z,2.93
2017-12-03T23:20:20.060Z,2.94
2017-12-03T23:22:47.586Z,2.97
2017-12-03T23:25:15.119Z,2.98
2017-12-03T23:27:42.608Z,2.97
2017-12-03T23:30:10.149Z,2.94
2017-12-03T23:32:37.627Z,2.97
2017-12-03T23:35:05.147Z,2.99
2017-12-03T23:37:32.732Z,2.98
2017-12-03T23:40:00.220Z,2.94
2017-12-03T23:42:27.713Z,3.01
2017-12-03T23:44:55.283Z,3.02
2017-12-03T23:47:22.768Z,3.05
2017-12-03T23:49:50.256Z,3.07
2017-12-03T23:52:17.800Z,3.06
2017-12-03T23:54:45.283Z,3.06
2017-12-03T23:57:12.774Z,3.09
2017-12-03T23:59:40.295Z,3.12
